Terminal Aerodrome Forecast
Issued by NWS Greer, SC

Home | Current Version | Previous Version | Text Only | Print | Product List | Glossary On
Versions: 1 2 3 4 5 6 7 8 9 10 11 12 13 14 15 16 17 18 19 20 21 22 23 24 25 26
000
FTUS42 KGSP 040520
TAFAVL
TAF
KAVL 040520Z 0406/0506 34008KT P6SM SCT030
     FM041800 35011G24KT P6SM BKN050
     FM042300 34008KT P6SM BKN070 PROB30 0423/0505 4SM -SHRA OVC025
     FM050500 33008KT P6SM BKN030=

USA.gov is the U.S. government's official web portal to all federal, state and local government web resources and services.